createdAt,value
2022-12-08T00:01:22.240Z,2.00
2022-12-08T00:03:49.568Z,2.00
2022-12-08T00:06:50.814Z,2.10
2022-12-08T00:09:30.017Z,2.10
2022-12-08T00:12:07.139Z,2.10
2022-12-08T00:14:37.571Z,2.20
2022-12-08T00:17:06.242Z,2.30
2022-12-08T00:19:33.752Z,2.30
2022-12-08T00:22:00.515Z,2.40
2022-12-08T00:24:31.439Z,2.40
2022-12-08T00:26:58.128Z,2.40
2022-12-08T00:29:24.854Z,2.30
2022-12-08T00:31:51.602Z,2.30
2022-12-08T00:34:18.418Z,2.30
2022-12-08T00:36:46.457Z,2.30
2022-12-08T00:39:15.044Z,2.30
2022-12-08T00:42:00.106Z,2.30
2022-12-08T00:44:26.761Z,2.30
2022-12-08T00:46:53.433Z,2.20
2022-12-08T00:49:20.463Z,2.20
2022-12-08T00:51:47.240Z,2.20
2022-12-08T00:54:13.921Z,2.20
2022-12-08T00:56:40.593Z,2.10
2022-12-08T00:59:08.464Z,2.10
2022-12-08T01:01:35.554Z,2.10
2022-12-08T01:04:10.520Z,2.20
2022-12-08T01:06:38.366Z,2.10
2022-12-08T01:09:07.230Z,2.00
2022-12-08T01:11:34.808Z,2.10
2022-12-08T01:14:01.724Z,2.00
2022-12-08T01:16:33.683Z,2.00
2022-12-08T01:19:01.471Z,1.90
2022-12-08T01:21:28.848Z,2.00
2022-12-08T01:23:55.673Z,1.90
2022-12-08T01:26:22.483Z,1.90
2022-12-08T01:28:49.193Z,1.90
2022-12-08T01:31:19.251Z,1.80
2022-12-08T01:33:46.670Z,1.80
2022-12-08T01:36:19.297Z,1.80
2022-12-08T01:38:46.000Z,1.70
2022-12-08T01:41:17.859Z,1.70
2022-12-08T01:43:58.559Z,1.80
2022-12-08T01:46:26.261Z,1.70
2022-12-08T01:49:15.214Z,1.70
2022-12-08T01:51:54.401Z,1.70
2022-12-08T01:54:24.245Z,1.60
2022-12-08T01:56:57.080Z,1.70
2022-12-08T01:59:25.118Z,1.70
2022-12-08T02:01:52.151Z,1.70
2022-12-08T02:04:18.942Z,1.70
2022-12-08T02:06:47.570Z,1.70
2022-12-08T02:09:14.743Z,1.70
2022-12-08T02:11:41.390Z,1.70
2022-12-08T02:14:10.278Z,1.80
2022-12-08T02:16:40.736Z,1.80
2022-12-08T02:19:31.097Z,1.80
2022-12-08T02:22:01.309Z,1.90
2022-12-08T02:24:27.883Z,1.90
2022-12-08T02:27:27.844Z,2.00
2022-12-08T02:30:15.665Z,1.90
2022-12-08T02:33:05.065Z,2.00
2022-12-08T02:36:00.967Z,2.10
2022-12-08T02:38:33.138Z,2.20
2022-12-08T02:41:02.840Z,2.30
2022-12-08T02:43:35.655Z,2.30
2022-12-08T02:46:09.704Z,2.40
2022-12-08T02:48:36.481Z,2.40
2022-12-08T02:51:03.408Z,2.40
2022-12-08T02:53:33.388Z,2.40
2022-12-08T02:56:14.280Z,2.30
2022-12-08T02:59:24.988Z,2.40
2022-12-08T03:01:57.564Z,2.40
2022-12-08T03:04:43.424Z,2.30
2022-12-08T03:07:22.609Z,2.30
2022-12-08T03:09:58.676Z,2.30
2022-12-08T03:12:32.853Z,2.30
2022-12-08T03:15:04.774Z,2.30
2022-12-08T03:17:31.892Z,2.30
2022-12-08T03:20:04.250Z,2.30
2022-12-08T03:22:32.366Z,2.30
2022-12-08T03:24:59.192Z,2.30
2022-12-08T03:27:29.410Z,2.30
2022-12-08T03:29:58.098Z,2.40
2022-12-08T03:32:37.833Z,2.40
2022-12-08T03:35:10.949Z,2.40
2022-12-08T03:37:40.198Z,2.50
2022-12-08T03:40:11.464Z,2.60
2022-12-08T03:42:38.296Z,2.50
2022-12-08T03:45:05.700Z,2.50
2022-12-08T03:47:32.386Z,2.50
2022-12-08T03:49:59.062Z,2.50
2022-12-08T03:52:25.743Z,2.50
2022-12-08T03:54:52.458Z,2.60
2022-12-08T03:57:19.083Z,2.60
2022-12-08T03:59:45.717Z,2.60
2022-12-08T04:02:12.368Z,2.60
2022-12-08T04:04:39.092Z,2.60
2022-12-08T04:07:05.700Z,2.60
2022-12-08T04:09:32.758Z,2.70
2022-12-08T04:11:59.456Z,2.70
2022-12-08T04:14:26.072Z,2.70
2022-12-08T04:16:52.660Z,2.70
2022-12-08T04:19:19.725Z,2.70
2022-12-08T04:21:46.497Z,2.70
2022-12-08T04:24:13.196Z,2.70
2022-12-08T04:26:39.920Z,2.70
2022-12-08T04:29:06.580Z,2.70
2022-12-08T04:31:33.303Z,2.80
2022-12-08T04:34:00.066Z,2.80
2022-12-08T04:36:26.825Z,2.80
2022-12-08T04:38:53.931Z,2.70
2022-12-08T04:41:20.621Z,2.80
2022-12-08T04:43:47.373Z,2.70
2022-12-08T04:46:14.236Z,2.80
2022-12-08T04:48:41.447Z,2.80
2022-12-08T04:51:17.914Z,2.90
2022-12-08T04:53:46.980Z,2.90
2022-12-08T04:56:15.889Z,2.90
2022-12-08T04:58:43.030Z,2.90
2022-12-08T05:01:10.769Z,2.90
2022-12-08T05:03:37.800Z,3.00
2022-12-08T05:06:05.192Z,2.40
2022-12-08T05:08:32.994Z,2.90
2022-12-08T05:11:05.431Z,3.00
2022-12-08T05:13:32.385Z,2.90
2022-12-08T05:16:13.467Z,2.90
2022-12-08T05:18:41.260Z,2.90
2022-12-08T05:21:08.533Z,2.90
2022-12-08T05:23:36.599Z,2.90
2022-12-08T05:26:03.725Z,2.90
2022-12-08T05:28:45.840Z,2.90
2022-12-08T05:31:15.082Z,2.90
2022-12-08T05:33:42.465Z,3.00
2022-12-08T05:36:11.478Z,3.00
2022-12-08T05:38:38.187Z,3.00
2022-12-08T05:41:07.213Z,3.00
2022-12-08T05:43:34.207Z,3.00
2022-12-08T05:46:01.084Z,3.10
2022-12-08T05:48:27.958Z,3.10
2022-12-08T05:50:55.582Z,3.00
2022-12-08T05:53:22.317Z,3.00
2022-12-08T05:55:48.921Z,3.00
2022-12-08T05:58:18.251Z,3.00
2022-12-08T06:00:45.639Z,3.00
2022-12-08T06:03:13.808Z,3.10
2022-12-08T06:05:42.071Z,3.00
2022-12-08T06:08:09.705Z,3.00
2022-12-08T06:10:38.697Z,2.90
2022-12-08T06:13:05.522Z,2.90
2022-12-08T06:15:34.760Z,2.90
2022-12-08T06:18:01.511Z,3.00
2022-12-08T06:20:28.206Z,3.00
2022-12-08T06:22:55.735Z,3.00
2022-12-08T06:25:22.882Z,2.90
2022-12-08T06:27:49.556Z,2.90
2022-12-08T06:30:17.511Z,2.90
2022-12-08T06:32:44.509Z,3.00
2022-12-08T06:35:11.289Z,3.00
2022-12-08T06:37:37.948Z,3.00
2022-12-08T06:40:05.261Z,3.00
2022-12-08T06:42:44.264Z,3.00
2022-12-08T06:45:13.540Z,3.00
2022-12-08T06:47:40.351Z,3.00
2022-12-08T06:50:08.520Z,3.00
2022-12-08T06:52:40.874Z,3.00
2022-12-08T06:55:29.283Z,3.00
2022-12-08T06:57:59.517Z,3.00
2022-12-08T07:00:26.206Z,3.00
2022-12-08T07:02:52.984Z,3.00
2022-12-08T07:05:19.844Z,3.00
2022-12-08T07:07:46.540Z,3.00
2022-12-08T07:10:13.272Z,3.00
2022-12-08T07:12:39.911Z,2.90
2022-12-08T07:15:07.296Z,2.80
2022-12-08T07:17:33.949Z,2.80
2022-12-08T07:20:00.598Z,2.80
2022-12-08T07:22:27.310Z,2.80
2022-12-08T07:24:53.976Z,2.80
2022-12-08T07:27:20.602Z,2.70
2022-12-08T07:29:47.270Z,2.70
2022-12-08T07:32:13.880Z,2.70
2022-12-08T07:34:40.479Z,2.70
2022-12-08T07:37:07.114Z,2.70
2022-12-08T07:39:33.719Z,2.70
2022-12-08T07:42:00.415Z,2.70
2022-12-08T07:44:27.053Z,2.60
2022-12-08T07:46:53.696Z,2.60
2022-12-08T07:49:20.476Z,2.60
2022-12-08T07:51:47.122Z,2.60
2022-12-08T07:54:13.952Z,2.60
2022-12-08T07:56:40.579Z,2.60
2022-12-08T07:59:07.245Z,2.50
2022-12-08T08:01:35.067Z,2.60
2022-12-08T08:04:05.288Z,2.60
2022-12-08T08:06:33.076Z,2.60
2022-12-08T08:08:59.881Z,2.60
2022-12-08T08:11:26.711Z,2.50
2022-12-08T08:13:53.738Z,2.60
2022-12-08T08:16:21.120Z,2.60
2022-12-08T08:18:51.765Z,2.60
2022-12-08T08:21:44.563Z,2.50
2022-12-08T08:24:06.646Z,2.50
2022-12-08T08:26:33.279Z,2.50
2022-12-08T08:28:59.934Z,2.50
2022-12-08T08:31:27.361Z,2.50
2022-12-08T08:33:55.715Z,2.70
2022-12-08T08:36:22.541Z,2.40
2022-12-08T08:38:49.208Z,2.50
2022-12-08T08:41:15.866Z,2.50
2022-12-08T08:43:42.477Z,2.50
2022-12-08T08:46:10.196Z,2.60
2022-12-08T08:48:37.599Z,2.60
2022-12-08T08:51:10.018Z,2.50
2022-12-08T08:53:37.197Z,2.50
2022-12-08T08:56:09.491Z,2.50
2022-12-08T08:58:36.214Z,2.60
2022-12-08T09:01:02.935Z,2.60
2022-12-08T09:03:29.572Z,2.60
2022-12-08T09:05:59.865Z,2.60
2022-12-08T09:08:27.016Z,2.60
2022-12-08T09:10:54.651Z,2.60
2022-12-08T09:13:22.260Z,2.70
2022-12-08T09:15:49.077Z,2.70
2022-12-08T09:18:15.900Z,2.70
2022-12-08T09:20:42.722Z,2.70
2022-12-08T09:23:09.449Z,2.70
2022-12-08T09:25:36.179Z,2.80
2022-12-08T09:28:02.903Z,2.80
2022-12-08T09:30:29.509Z,2.70
2022-12-08T09:32:56.192Z,2.70
2022-12-08T09:35:22.839Z,2.70
2022-12-08T09:37:49.502Z,2.70
2022-12-08T09:40:18.581Z,2.70
2022-12-08T09:43:01.124Z,2.60
2022-12-08T09:45:33.168Z,2.70
2022-12-08T09:48:15.481Z,2.70
2022-12-08T09:50:52.538Z,2.70
2022-12-08T09:53:35.505Z,2.70
2022-12-08T09:56:08.764Z,2.70
2022-12-08T09:58:47.475Z,2.80
2022-12-08T10:01:14.935Z,2.80
2022-12-08T10:03:42.808Z,2.80
2022-12-08T10:06:27.868Z,2.70
2022-12-08T10:09:41.876Z,2.80
2022-12-08T10:12:29.065Z,2.90
2022-12-08T10:15:07.253Z,3.00
2022-12-08T10:17:38.700Z,3.00
2022-12-08T10:20:16.882Z,3.10
2022-12-08T10:22:46.175Z,3.10
2022-12-08T10:25:22.356Z,3.20
2022-12-08T10:27:52.173Z,3.20
2022-12-08T10:30:20.876Z,3.10
2022-12-08T10:32:54.073Z,3.20
2022-12-08T10:35:22.698Z,3.20
2022-12-08T10:38:00.853Z,3.20
2022-12-08T10:40:34.899Z,3.20
2022-12-08T10:43:03.217Z,3.20
2022-12-08T10:45:37.538Z,3.20
2022-12-08T10:48:16.796Z,3.30
2022-12-08T10:50:46.425Z,3.20
2022-12-08T10:53:20.413Z,3.20
2022-12-08T10:56:06.322Z,3.20
2022-12-08T10:58:35.682Z,3.20
2022-12-08T11:01:26.237Z,3.10
2022-12-08T11:03:57.712Z,3.00
2022-12-08T12:56:49.681Z,3.50
2022-12-08T12:59:40.468Z,3.90
2022-12-08T13:02:21.425Z,3.70
2022-12-08T13:05:07.388Z,3.70
2022-12-08T13:07:42.057Z,3.70
2022-12-08T13:10:22.724Z,3.70
2022-12-08T13:13:10.681Z,3.80
2022-12-08T13:15:39.241Z,3.90
2022-12-08T13:18:16.535Z,3.90
2022-12-08T13:20:47.953Z,3.90
2022-12-08T13:23:38.646Z,4.00
2022-12-08T13:26:16.117Z,4.00
2022-12-08T13:29:03.980Z,4.10
2022-12-08T13:31:57.090Z,4.10
2022-12-08T13:34:39.290Z,4.10
2022-12-08T13:37:11.987Z,4.10
2022-12-08T13:40:07.729Z,4.00
2022-12-08T13:42:43.176Z,3.90
2022-12-08T13:57:13.961Z,3.80
2022-12-08T13:59:45.391Z,3.90
2022-12-08T14:02:28.412Z,3.80
2022-12-08T14:07:43.813Z,3.80
2022-12-08T14:10:20.473Z,3.80
2022-12-08T14:12:52.148Z,3.80
2022-12-08T14:15:19.983Z,3.80
2022-12-08T14:17:57.308Z,3.80
2022-12-08T14:20:30.152Z,3.80
2022-12-08T14:22:59.405Z,3.80
2022-12-08T14:25:28.319Z,3.70
2022-12-08T14:28:03.782Z,3.70
2022-12-08T14:30:33.029Z,3.60
2022-12-08T14:33:01.594Z,3.60
2022-12-08T14:35:39.307Z,3.50
2022-12-08T14:38:16.257Z,3.40
2022-12-08T14:49:01.996Z,3.40
2022-12-08T14:51:30.549Z,3.50
2022-12-08T14:54:01.509Z,3.40
2022-12-08T14:56:54.708Z,3.40
2022-12-08T14:59:30.352Z,3.40
2022-12-08T15:02:25.231Z,3.40
2022-12-08T15:05:05.625Z,3.40
2022-12-08T15:07:45.978Z,3.40
2022-12-08T15:10:15.780Z,3.40
2022-12-08T15:13:02.436Z,3.40
2022-12-08T15:15:30.522Z,3.40
2022-12-08T15:18:12.342Z,3.30
2022-12-08T15:20:38.973Z,3.40
2022-12-08T15:23:06.300Z,3.30
2022-12-08T15:25:33.180Z,3.40
2022-12-08T15:28:01.945Z,3.30
2022-12-08T15:30:28.739Z,3.30
2022-12-08T15:32:56.258Z,3.20
2022-12-08T15:35:23.095Z,3.10
2022-12-08T15:37:49.767Z,3.10
2022-12-08T15:40:20.084Z,3.00
2022-12-08T15:42:46.855Z,3.00
2022-12-08T15:45:14.962Z,3.00
2022-12-08T15:47:43.397Z,2.90
2022-12-08T15:50:16.928Z,3.00
2022-12-08T15:52:43.844Z,2.90
2022-12-08T15:55:19.663Z,3.10
2022-12-08T15:58:51.718Z,2.90
2022-12-08T16:00:54.207Z,2.90
2022-12-08T16:07:04.800Z,2.80
2022-12-08T16:09:15.937Z,2.80
2022-12-08T16:12:07.017Z,2.70
2022-12-08T16:15:46.050Z,2.70
2022-12-08T16:17:21.480Z,2.70
2022-12-08T16:19:48.161Z,2.70
2022-12-08T16:25:21.804Z,2.70
2022-12-08T16:28:12.607Z,2.80
2022-12-08T16:30:44.835Z,2.80
2022-12-08T16:33:14.385Z,2.80
2022-12-08T16:35:42.048Z,2.80
2022-12-08T16:38:14.816Z,2.80
2022-12-08T16:41:03.034Z,2.90
2022-12-08T16:43:31.360Z,2.90
2022-12-08T16:45:58.212Z,2.90
2022-12-08T16:48:25.026Z,2.90
2022-12-08T16:50:51.756Z,2.90
2022-12-08T16:53:18.473Z,2.90
2022-12-08T16:55:49.225Z,2.90
2022-12-08T16:58:18.337Z,3.00
2022-12-08T17:00:45.125Z,3.00
2022-12-08T17:03:14.568Z,3.10
2022-12-08T17:05:41.480Z,3.10
2022-12-08T17:08:08.296Z,3.10
2022-12-08T17:10:39.308Z,3.10
2022-12-08T17:13:06.354Z,3.10
2022-12-08T17:15:33.148Z,3.10
2022-12-08T17:17:59.872Z,3.10
2022-12-08T17:20:28.046Z,3.10
2022-12-08T17:22:57.360Z,3.10
2022-12-08T17:25:25.009Z,3.00
2022-12-08T17:27:51.746Z,3.00
2022-12-08T17:30:19.225Z,3.00
2022-12-08T17:32:46.512Z,3.00
2022-12-08T17:35:14.261Z,3.00
2022-12-08T17:37:41.054Z,3.00
2022-12-08T17:40:08.549Z,3.00
2022-12-08T17:42:35.585Z,3.00
2022-12-08T17:45:02.401Z,3.00
2022-12-08T17:47:29.361Z,3.00
2022-12-08T17:49:56.357Z,2.90
2022-12-08T17:52:23.178Z,2.90
2022-12-08T17:54:49.855Z,2.90
2022-12-08T17:57:16.521Z,2.90
2022-12-08T17:59:43.196Z,3.00
2022-12-08T18:02:12.041Z,2.90
2022-12-08T18:04:38.787Z,2.90
2022-12-08T18:07:05.864Z,2.90
2022-12-08T18:09:33.546Z,2.90
2022-12-08T18:12:00.403Z,2.90
2022-12-08T18:14:27.768Z,2.90
2022-12-08T18:16:54.482Z,3.00
2022-12-08T18:19:21.403Z,3.00
2022-12-08T18:21:48.048Z,3.00
2022-12-08T18:24:21.091Z,3.00
2022-12-08T18:26:50.573Z,3.00
2022-12-08T18:29:17.464Z,3.00
2022-12-08T18:31:44.221Z,3.00
2022-12-08T18:34:10.920Z,3.00
2022-12-08T18:36:37.642Z,3.00
2022-12-08T18:39:10.258Z,3.10
2022-12-08T18:41:37.665Z,3.10
2022-12-08T18:44:04.585Z,3.10
2022-12-08T18:46:31.606Z,3.10
2022-12-08T18:48:59.316Z,3.10
2022-12-08T18:51:26.042Z,3.20
2022-12-08T18:53:53.092Z,3.10
2022-12-08T18:56:33.955Z,3.10
2022-12-08T18:59:03.777Z,3.20
2022-12-08T19:01:32.778Z,3.20
2022-12-08T19:06:47.780Z,3.20
2022-12-08T19:09:15.201Z,3.20
2022-12-08T19:11:42.520Z,3.20
2022-12-08T19:14:09.707Z,3.20
2022-12-08T19:16:36.735Z,3.10
2022-12-08T19:19:04.350Z,3.10
2022-12-08T19:21:31.492Z,3.10
2022-12-08T19:23:58.577Z,3.20
2022-12-08T19:26:27.124Z,3.10
2022-12-08T19:28:54.062Z,3.20
2022-12-08T19:31:20.824Z,3.20
2022-12-08T19:33:47.560Z,3.20
2022-12-08T19:36:16.761Z,3.10
2022-12-08T19:39:02.536Z,3.20
2022-12-08T19:41:48.245Z,3.10
2022-12-08T19:44:39.702Z,3.10
2022-12-08T19:47:06.753Z,3.10
2022-12-08T19:49:33.591Z,3.10
2022-12-08T19:52:00.971Z,3.10
2022-12-08T19:54:28.027Z,3.10
2022-12-08T19:56:54.845Z,3.10
2022-12-08T19:59:21.915Z,3.00
2022-12-08T20:01:49.160Z,3.10
2022-12-08T20:04:16.478Z,3.10
2022-12-08T20:06:45.596Z,3.00
2022-12-08T20:09:13.579Z,3.10
2022-12-08T20:11:40.648Z,3.10
2022-12-08T20:14:07.589Z,3.10
2022-12-08T20:16:34.524Z,3.00
2022-12-08T20:19:01.984Z,3.00
2022-12-08T20:21:28.719Z,3.00
2022-12-08T20:23:55.536Z,3.00
2022-12-08T20:26:23.388Z,3.00
2022-12-08T20:28:50.448Z,3.00
2022-12-08T20:31:25.227Z,3.00
2022-12-08T20:33:52.487Z,3.00
2022-12-08T20:36:20.350Z,3.10
2022-12-08T20:38:48.498Z,3.10
2022-12-08T20:41:16.193Z,3.00
2022-12-08T20:43:47.375Z,3.00
2022-12-08T20:46:15.912Z,3.00
2022-12-08T20:48:44.326Z,3.00
2022-12-08T20:51:19.419Z,3.00
2022-12-08T20:53:46.515Z,2.90
2022-12-08T20:56:22.029Z,2.90
2022-12-08T20:58:49.511Z,2.90
2022-12-08T21:01:20.795Z,2.90
2022-12-08T21:03:48.652Z,2.90
2022-12-08T21:06:15.781Z,2.90
2022-12-08T21:08:43.017Z,2.90
2022-12-08T21:11:10.717Z,2.80
2022-12-08T21:13:38.788Z,2.80
2022-12-08T21:16:06.702Z,3.10
2022-12-08T21:18:39.202Z,2.70
2022-12-08T21:21:09.729Z,2.70
2022-12-08T21:23:36.609Z,2.70
2022-12-08T21:26:03.547Z,2.70
2022-12-08T21:28:30.471Z,2.70
2022-12-08T21:30:57.373Z,2.70
2022-12-08T21:33:24.231Z,2.70
2022-12-08T21:35:51.065Z,2.70
2022-12-08T21:38:17.848Z,2.70
2022-12-08T21:40:44.852Z,2.70
2022-12-08T21:43:13.337Z,2.60
2022-12-08T21:45:40.045Z,2.60
2022-12-08T21:48:11.212Z,2.60
2022-12-08T21:50:38.681Z,2.70
2022-12-08T21:53:05.568Z,2.80
2022-12-08T21:55:32.585Z,2.80
2022-12-08T21:58:00.751Z,2.80
2022-12-08T22:00:28.036Z,2.70
2022-12-08T22:02:55.040Z,2.70
2022-12-08T22:05:22.109Z,2.70
2022-12-08T22:07:48.947Z,2.70
2022-12-08T22:10:16.175Z,2.70
2022-12-08T22:12:43.305Z,2.70
2022-12-08T22:15:11.164Z,2.70
2022-12-08T22:17:42.891Z,2.70
2022-12-08T22:20:13.364Z,2.70
2022-12-08T22:22:40.376Z,2.70
2022-12-08T22:25:11.845Z,2.70
2022-12-08T22:27:40.033Z,2.70
2022-12-08T22:30:07.650Z,2.70
2022-12-08T22:32:34.914Z,2.70
2022-12-08T22:35:01.714Z,2.70
2022-12-08T22:37:28.805Z,2.60
2022-12-08T22:39:55.403Z,2.70
2022-12-08T22:42:22.021Z,2.60
2022-12-08T22:44:48.794Z,2.60
2022-12-08T22:47:15.519Z,2.60
2022-12-08T22:49:42.134Z,2.60
2022-12-08T22:52:08.852Z,2.60
2022-12-08T22:54:35.760Z,2.60
2022-12-08T22:57:02.451Z,2.50
2022-12-08T22:59:29.684Z,2.60
2022-12-08T23:01:56.455Z,2.60
2022-12-08T23:04:23.271Z,2.60
2022-12-08T23:06:50.308Z,2.60
2022-12-08T23:09:17.098Z,2.60
2022-12-08T23:11:44.220Z,2.70
2022-12-08T23:14:11.222Z,2.50
2022-12-08T23:16:38.437Z,2.50
2022-12-08T23:19:05.283Z,2.50
2022-12-08T23:21:32.210Z,2.50
2022-12-08T23:24:01.266Z,2.60
2022-12-08T23:26:30.367Z,2.50
2022-12-08T23:28:57.802Z,2.50
2022-12-08T23:31:25.631Z,2.50
2022-12-08T23:33:53.073Z,2.50
2022-12-08T23:36:21.708Z,2.50
2022-12-08T23:38:49.053Z,2.50
2022-12-08T23:41:16.678Z,2.50
2022-12-08T23:43:49.351Z,2.50
2022-12-08T23:46:17.813Z,2.50
2022-12-08T23:48:45.106Z,2.60
2022-12-08T23:51:12.662Z,2.40
2022-12-08T23:53:39.633Z,2.40
2022-12-08T23:56:08.585Z,2.40
2022-12-08T23:58:36.647Z,2.40
